Time;durP1;ratioP1;P1;durP2;ratioP2;P2;SDS_P1;SDS_P2;PMS_P1;PMS_P2;Temp;Humidity;BMP_temperature;BMP_pressure;BME280_temperature;BME280_humidity;BME280_pressure;Samples;Min_cycle;Max_cycle;Signal;HPM_P1;HPM_P2
2023/02/01 00:00:53;;;;;;;102.00;26.58;;;28.60;71.10;;;;;;5086264;28;20020;-63
2023/02/01 00:03:21;;;;;;;88.97;26.40;;;28.60;71.10;;;;;;5086525;28;20056;-64
2023/02/01 00:05:58;;;;;;;68.18;24.65;;;28.60;71.00;;;;;;5086106;28;20024;-63
2023/02/01 00:08:24;;;;;;;73.72;22.58;;;28.60;70.70;;;;;;5086399;28;20243;-64
2023/02/01 00:11:05;;;;;;;64.13;20.25;;;28.60;70.70;;;;;;5085781;28;20224;-56
2023/02/01 00:13:34;;;;;;;65.03;17.77;;;28.60;70.70;;;;;;5085936;28;20099;-54
2023/02/01 00:16:12;;;;;;;72.28;16.98;;;28.60;70.40;;;;;;5085630;28;20033;-55
2023/02/01 00:18:39;;;;;;;130.23;18.73;;;28.50;70.30;;;;;;5085744;28;20100;-60
2023/02/01 00:21:05;;;;;;;52.08;14.63;;;28.50;70.40;;;;;;5085687;28;20099;-57
2023/02/01 00:23:36;;;;;;;56.05;13.60;;;28.50;70.60;;;;;;5085851;28;20420;-55
2023/02/01 00:26:05;;;;;;;45.00;12.95;;;28.50;70.70;;;;;;5085552;28;20410;-55
2023/02/01 00:28:32;;;;;;;35.10;12.10;;;28.50;70.50;;;;;;5085417;28;20214;-55
2023/02/01 00:30:59;;;;;;;63.85;13.05;;;28.50;70.60;;;;;;5085573;28;20075;-54
2023/02/01 00:33:27;;;;;;;50.65;12.35;;;28.50;70.70;;;;;;5085381;28;20028;-55
2023/02/01 00:36:01;;;;;;;37.42;10.85;;;28.40;70.90;;;;;;5085213;28;20016;-54
2023/02/01 00:38:30;;;;;;;40.03;11.15;;;28.40;70.90;;;;;;5085300;28;20040;-55
2023/02/01 00:41:03;;;;;;;40.40;11.27;;;28.40;70.80;;;;;;5085264;28;20317;-56
2023/02/01 00:43:32;;;;;;;34.35;12.52;;;28.40;70.70;;;;;;5083837;28;20244;-55
2023/02/01 00:45:58;;;;;;;30.92;14.00;;;28.40;70.70;;;;;;5085128;28;20054;-56
2023/02/01 00:48:25;;;;;;;26.42;12.43;;;28.30;70.70;;;;;;5085186;28;20032;-55
2023/02/01 00:50:52;;;;;;;25.25;11.05;;;28.30;70.80;;;;;;5084962;28;20032;-55
2023/02/01 00:53:19;;;;;;;43.47;9.80;;;28.30;70.70;;;;;;5084835;28;20086;-57
2023/02/01 00:55:49;;;;;;;41.28;10.50;;;28.20;70.40;;;;;;5076556;28;20040;-56
2023/02/01 00:58:15;;;;;;;22.42;9.60;;;28.10;70.60;;;;;;5077507;28;20055;-57
2023/02/01 01:00:42;;;;;;;26.58;9.55;;;28.10;70.70;;;;;;5064992;28;20033;-55
2023/02/01 01:03:18;;;;;;;24.63;9.23;;;28.10;70.70;;;;;;5064718;28;20029;-55
2023/02/01 01:05:49;;;;;;;24.83;9.32;;;28.10;70.70;;;;;;5064698;28;20017;-58
2023/02/01 01:08:16;;;;;;;26.52;9.23;;;28.10;71.10;;;;;;5065154;28;20033;-56
2023/02/01 01:10:43;;;;;;;23.40;9.55;;;28.10;70.60;;;;;;5064508;28;20067;-57
2023/02/01 01:13:11;;;;;;;28.38;12.02;;;28.10;70.50;;;;;;5064718;28;20036;-57
2023/02/01 01:15:39;;;;;;;37.97;9.85;;;28.20;70.30;;;;;;5079674;28;20012;-53
2023/02/01 01:18:07;;;;;;;35.75;9.43;;;28.00;70.00;;;;;;5084876;28;20104;-59
2023/02/01 01:20:38;;;;;;;29.02;8.75;;;27.90;70.30;;;;;;5083799;28;20186;-62
2023/02/01 01:23:08;;;;;;;24.27;8.80;;;28.00;70.60;;;;;;5077797;28;20040;-61
2023/02/01 01:25:40;;;;;;;24.33;9.05;;;28.00;70.50;;;;;;5080496;28;20055;-58
2023/02/01 01:28:07;;;;;;;20.58;8.77;;;28.00;70.40;;;;;;5082988;28;20048;-59
2023/02/01 01:30:35;;;;;;;22.38;8.50;;;28.10;70.30;;;;;;5073441;28;20025;-58
2023/02/01 01:33:01;;;;;;;50.17;11.07;;;28.10;70.30;;;;;;5071501;28;20090;-56
2023/02/01 01:35:33;;;;;;;22.83;9.00;;;28.10;70.10;;;;;;5069778;28;20067;-56
2023/02/01 01:38:01;;;;;;;27.00;8.55;;;28.20;70.10;;;;;;5072194;28;20025;-59
2023/02/01 01:40:29;;;;;;;24.08;8.98;;;28.20;69.90;;;;;;5075010;28;20037;-59
2023/02/01 01:42:56;;;;;;;20.27;8.80;;;28.20;69.90;;;;;;5064385;28;20094;-60
2023/02/01 01:45:32;;;;;;;21.08;8.38;;;28.20;69.80;;;;;;5063896;28;20044;-60
2023/02/01 01:48:11;;;;;;;16.98;9.05;;;28.20;69.70;;;;;;5064324;28;20092;-60
2023/02/01 01:50:54;;;;;;;25.42;8.50;;;28.20;69.60;;;;;;5066258;28;20071;-59
2023/02/01 01:53:31;;;;;;;24.08;9.68;;;28.20;69.50;;;;;;5077782;28;20035;-60
2023/02/01 01:55:58;;;;;;;15.85;8.70;;;28.20;69.50;;;;;;5083844;28;20031;-58
2023/02/01 01:58:28;;;;;;;20.88;9.13;;;28.20;69.30;;;;;;5084251;28;20228;-56
2023/02/01 02:00:55;;;;;;;19.85;9.50;;;28.30;69.40;;;;;;5083972;28;20040;-59
2023/02/01 02:03:33;;;;;;;17.55;9.15;;;28.20;69.40;;;;;;5084301;28;20055;-58
2023/02/01 02:06:02;;;;;;;19.30;9.52;;;28.20;69.30;;;;;;5082720;28;20028;-57
2023/02/01 02:08:29;;;;;;;14.05;9.32;;;28.20;69.40;;;;;;5073077;28;20027;-64
2023/02/01 02:10:59;;;;;;;19.92;10.73;;;28.20;69.40;;;;;;5081010;28;20029;-57
2023/02/01 02:13:30;;;;;;;23.00;10.00;;;28.20;69.30;;;;;;5083794;28;20021;-59
2023/02/01 02:16:27;;;;;;;20.70;10.15;;;28.20;69.20;;;;;;5083869;28;20194;-59
2023/02/01 02:19:12;;;;;;;16.05;10.13;;;28.20;69.20;;;;;;5083663;28;20078;-63
2023/02/01 02:22:12;;;;;;;14.25;10.25;;;28.20;69.20;;;;;;5083448;28;20328;-58
2023/02/01 02:25:13;;;;;;;20.88;11.77;;;28.20;69.00;;;;;;5079270;28;20028;-58
2023/02/01 02:27:58;;;;;;;17.08;10.90;;;28.20;69.10;;;;;;5078124;28;20301;-66
2023/02/01 02:30:43;;;;;;;13.80;10.90;;;28.10;69.10;;;;;;5083722;28;20058;-61
2023/02/01 02:33:13;;;;;;;13.73;10.82;;;28.10;69.10;;;;;;5084112;28;20099;-60
2023/02/01 02:35:54;;;;;;;14.43;10.00;;;28.10;69.00;;;;;;5076560;28;20063;-57
2023/02/01 02:38:26;;;;;;;16.48;9.95;;;28.10;69.00;;;;;;5067857;28;20115;-59
2023/02/01 02:41:06;;;;;;;25.05;10.63;;;28.10;68.90;;;;;;5063388;28;20052;-60
2023/02/01 02:54:44;;;;;;;13.48;8.88;;;28.00;68.70;;;;;;5075495;28;20031;-64
2023/02/01 02:55:25;;;;;;;14.38;8.70;;;28.00;68.50;;;;;;5083429;28;20067;-60
2023/02/01 03:06:18;;;;;;;9.98;7.28;;;28.00;67.90;;;;;;5063232;28;20051;-59
2023/02/01 03:08:46;;;;;;;10.73;7.25;;;27.90;67.60;;;;;;5063304;28;20310;-56
2023/02/01 03:11:16;;;;;;;11.70;7.30;;;27.90;67.60;;;;;;5074173;28;20047;-61
2023/02/01 03:13:51;;;;;;;11.10;7.20;;;27.90;67.40;;;;;;5083141;28;20021;-59
2023/02/01 03:16:30;;;;;;;11.93;7.22;;;27.90;67.20;;;;;;5083321;28;20027;-55
2023/02/01 03:19:24;;;;;;;10.13;7.43;;;27.90;67.20;;;;;;5086298;28;20259;-57
2023/02/01 03:22:15;;;;;;;9.63;7.30;;;27.80;67.70;;;;;;5086978;28;20105;-61
2023/02/01 03:24:51;;;;;;;16.42;7.93;;;27.90;67.20;;;;;;5086878;28;20057;-64
2023/02/01 03:27:32;;;;;;;13.20;7.85;;;27.80;67.10;;;;;;5086960;28;20032;-60
2023/02/01 03:30:25;;;;;;;14.80;7.60;;;27.80;67.00;;;;;;5086742;28;20024;-60
2023/02/01 03:32:59;;;;;;;9.30;6.97;;;27.80;66.70;;;;;;5051081;28;20037;-61
2023/02/01 03:35:57;;;;;;;10.93;7.25;;;27.80;66.80;;;;;;5086730;28;20024;-59
2023/02/01 03:38:39;;;;;;;10.13;8.10;;;27.80;66.70;;;;;;5087125;28;20039;-65
2023/02/01 03:41:35;;;;;;;14.10;8.50;;;27.80;66.50;;;;;;5086727;28;20220;-62
2023/02/01 03:44:04;;;;;;;11.68;8.05;;;27.70;66.10;;;;;;5077626;28;20044;-59
2023/02/01 03:46:42;;;;;;;10.43;7.80;;;27.70;66.20;;;;;;5086426;28;20052;-60
2023/02/01 03:49:13;;;;;;;14.13;8.02;;;27.70;66.00;;;;;;5086592;28;20028;-60
2023/02/01 03:51:41;;;;;;;11.25;7.65;;;27.70;66.00;;;;;;5086354;28;20035;-59
2023/02/01 03:54:13;;;;;;;11.93;8.20;;;27.70;65.90;;;;;;5086306;28;20020;-60
2023/02/01 03:56:46;;;;;;;11.38;7.75;;;27.70;65.70;;;;;;5086431;28;20039;-67
2023/02/01 03:59:13;;;;;;;;;;;27.70;65.40;;;;;;5086520;28;20024;-60
2023/02/01 04:01:40;;;;;;;8.27;7.30;;;27.70;65.20;;;;;;5086254;28;19909;-58
2023/02/01 04:04:07;;;;;;;10.98;7.30;;;27.70;65.10;;;;;;5086088;28;20073;-60
2023/02/01 04:06:33;;;;;;;12.52;6.78;;;27.60;65.00;;;;;;5085925;28;20032;-59
2023/02/01 04:09:02;;;;;;;7.85;6.38;;;27.70;64.90;;;;;;5083674;28;20031;-55
2023/02/01 04:11:29;;;;;;;12.85;7.40;;;27.60;64.70;;;;;;5075362;28;20075;-57
2023/02/01 04:13:55;;;;;;;8.23;6.82;;;27.60;64.70;;;;;;5065791;28;20025;-60
2023/02/01 04:16:22;;;;;;;11.18;6.75;;;27.60;64.60;;;;;;5065797;28;20024;-58
2023/02/01 04:18:49;;;;;;;11.35;6.50;;;27.60;64.60;;;;;;5065782;28;20025;-58
2023/02/01 04:21:16;;;;;;;8.38;6.70;;;27.60;64.40;;;;;;5065538;28;20052;-60
2023/02/01 04:23:44;;;;;;;10.82;6.65;;;27.60;64.40;;;;;;5065801;28;20071;-62
2023/02/01 04:26:10;;;;;;;11.30;6.90;;;27.60;64.50;;;;;;5065512;28;20033;-57
2023/02/01 04:28:37;;;;;;;10.73;7.05;;;27.50;64.70;;;;;;5064919;28;20048;-58
2023/02/01 04:31:03;;;;;;;8.80;6.65;;;27.50;64.90;;;;;;5065010;28;20313;-60
2023/02/01 04:33:31;;;;;;;10.13;6.80;;;27.50;65.10;;;;;;5065519;28;20317;-60
2023/02/01 04:35:58;;;;;;;7.65;6.85;;;27.50;65.20;;;;;;5065277;28;20021;-60
2023/02/01 04:38:24;;;;;;;8.43;6.50;;;27.50;65.30;;;;;;5065596;28;20194;-59
2023/02/01 04:40:51;;;;;;;7.30;6.53;;;27.50;65.40;;;;;;5065401;28;20213;-56
2023/02/01 04:43:18;;;;;;;9.18;7.10;;;27.50;65.30;;;;;;5065260;28;20053;-57
2023/02/01 04:45:48;;;;;;;7.82;6.38;;;27.50;65.00;;;;;;5065432;28;20290;-56
2023/02/01 04:48:20;;;;;;;8.07;6.70;;;27.50;64.80;;;;;;5065638;28;20301;-64
2023/02/01 04:50:48;;;;;;;11.07;7.43;;;27.50;64.60;;;;;;5065113;28;20268;-56
2023/02/01 04:53:15;;;;;;;7.50;6.05;;;27.50;64.50;;;;;;5065592;28;20063;-55
2023/02/01 04:55:42;;;;;;;9.13;6.95;;;27.40;64.20;;;;;;5065073;28;20037;-60
2023/02/01 04:58:09;;;;;;;7.95;6.90;;;27.50;64.10;;;;;;5065304;28;20305;-57
2023/02/01 05:00:36;;;;;;;9.60;7.18;;;27.40;63.80;;;;;;5064971;28;20048;-62
2023/02/01 05:03:03;;;;;;;12.75;7.05;;;27.40;63.60;;;;;;5065346;28;20142;-64
2023/02/01 05:05:30;;;;;;;9.77;6.80;;;27.40;63.40;;;;;;5064666;28;20025;-61
2023/02/01 05:07:58;;;;;;;8.82;6.65;;;27.40;63.30;;;;;;5065337;28;20037;-57
2023/02/01 05:10:24;;;;;;;14.55;7.15;;;27.40;63.10;;;;;;5064797;28;20013;-60
2023/02/01 05:15:36;;;;;;;7.70;6.90;;;27.30;62.90;;;;;;5064761;28;20108;-60
2023/02/01 05:18:02;;;;;;;11.68;7.00;;;27.30;62.90;;;;;;5064998;28;20040;-62
2023/02/01 05:20:29;;;;;;;8.75;7.18;;;27.30;62.90;;;;;;5064893;28;20228;-60
2023/02/01 05:22:55;;;;;;;8.32;7.20;;;27.20;62.80;;;;;;5064965;28;20297;-60
2023/02/01 05:25:22;;;;;;;8.02;7.22;;;27.30;62.90;;;;;;5064283;28;20037;-56
2023/02/01 05:27:49;;;;;;;10.73;7.60;;;27.20;62.90;;;;;;5064850;28;20032;-56
2023/02/01 05:30:16;;;;;;;8.50;7.35;;;27.30;63.00;;;;;;5064550;28;20066;-62
2023/02/01 05:32:42;;;;;;;8.05;7.00;;;27.20;62.70;;;;;;5064583;28;20297;-60
2023/02/01 05:35:09;;;;;;;12.45;7.20;;;27.30;62.70;;;;;;5064348;28;20025;-57
2023/02/01 05:37:36;;;;;;;9.13;7.28;;;27.20;62.40;;;;;;5064590;28;20037;-57
2023/02/01 05:40:03;;;;;;;8.63;7.68;;;27.20;62.30;;;;;;5063906;28;20088;-57
2023/02/01 05:42:30;;;;;;;8.68;7.45;;;27.20;62.20;;;;;;5064270;28;20309;-56
2023/02/01 05:44:56;;;;;;;8.85;7.30;;;27.30;62.20;;;;;;5064084;28;20029;-58
2023/02/01 05:47:23;;;;;;;8.07;7.10;;;27.30;62.20;;;;;;5064380;28;20017;-59
2023/02/01 05:49:50;;;;;;;10.20;7.53;;;27.30;61.90;;;;;;5064105;28;20083;-59
2023/02/01 05:52:19;;;;;;;10.75;7.80;;;27.30;61.80;;;;;;5064288;28;20021;-59
2023/02/01 05:54:49;;;;;;;9.25;8.07;;;27.30;61.70;;;;;;5063930;28;20029;-58
2023/02/01 05:57:16;;;;;;;10.70;8.10;;;27.30;61.60;;;;;;5064238;28;20041;-63
2023/02/01 05:59:44;;;;;;;8.63;7.32;;;27.20;61.30;;;;;;5063960;28;20044;-55
2023/02/01 06:02:12;;;;;;;10.95;8.30;;;27.20;61.20;;;;;;5064040;28;20074;-62
2023/02/01 06:04:39;;;;;;;9.82;7.50;;;27.20;61.00;;;;;;5074045;28;20052;-58
2023/02/01 06:07:07;;;;;;;12.23;8.25;;;27.20;61.10;;;;;;5064673;28;20028;-58
2023/02/01 06:09:35;;;;;;;11.02;8.25;;;27.20;61.10;;;;;;5063750;28;20021;-59
2023/02/01 06:12:02;;;;;;;8.73;7.72;;;27.20;61.10;;;;;;5064013;28;20024;-58
2023/02/01 06:14:29;;;;;;;8.77;7.80;;;27.20;61.00;;;;;;5063761;28;20067;-58
2023/02/01 06:16:55;;;;;;;10.88;7.60;;;27.20;60.90;;;;;;5063838;28;20084;-56
2023/02/01 06:19:23;;;;;;;9.30;8.13;;;27.20;60.80;;;;;;5063740;28;20021;-56
2023/02/01 06:21:50;;;;;;;9.40;7.57;;;27.20;60.80;;;;;;5063863;28;20030;-58
2023/02/01 06:24:16;;;;;;;10.18;8.13;;;27.20;60.60;;;;;;5063607;28;20043;-55
2023/02/01 06:26:43;;;;;;;8.90;7.97;;;27.20;60.50;;;;;;5063961;28;20036;-58
2023/02/01 06:29:13;;;;;;;10.30;8.40;;;27.20;60.50;;;;;;5063651;28;20025;-56
2023/02/01 06:31:40;;;;;;;12.40;8.43;;;27.20;60.20;;;;;;5063566;28;20032;-60
2023/02/01 06:34:06;;;;;;;9.98;8.63;;;27.10;60.00;;;;;;5063556;28;20361;-59
2023/02/01 06:36:33;;;;;;;10.20;8.25;;;27.10;60.00;;;;;;5063613;28;20197;-60
2023/02/01 06:38:59;;;;;;;11.10;8.50;;;27.20;59.90;;;;;;5063790;28;20032;-60
2023/02/01 06:41:26;;;;;;;12.63;8.43;;;27.10;59.80;;;;;;5063715;28;20073;-60
2023/02/01 06:43:53;;;;;;;9.93;8.43;;;27.10;59.90;;;;;;5063506;28;20321;-58
2023/02/01 06:46:19;;;;;;;9.98;8.00;;;27.10;60.00;;;;;;5063403;28;20102;-59
2023/02/01 06:48:46;;;;;;;11.35;8.10;;;27.10;60.00;;;;;;5063437;28;20257;-61
2023/02/01 06:51:21;;;;;;;11.40;8.07;;;27.10;60.10;;;;;;5063434;28;20424;-60
2023/02/01 06:53:48;;;;;;;10.93;7.82;;;27.10;59.90;;;;;;5066261;28;20024;-60
2023/02/01 06:56:14;;;;;;;11.48;8.55;;;27.10;59.80;;;;;;5067321;28;20036;-57
2023/02/01 06:58:41;;;;;;;11.07;8.63;;;27.10;59.80;;;;;;5067303;28;20096;-60
2023/02/01 07:01:09;;;;;;;10.57;8.40;;;27.10;59.70;;;;;;5067141;28;20205;-58
2023/02/01 07:03:36;;;;;;;11.05;8.75;;;27.10;59.50;;;;;;5067262;28;20033;-60
2023/02/01 07:06:04;;;;;;;9.13;8.13;;;27.10;59.40;;;;;;5067017;28;20041;-60
2023/02/01 07:08:32;;;;;;;11.18;8.50;;;27.10;59.40;;;;;;5066965;28;20067;-55
2023/02/01 07:11:08;;;;;;;10.63;8.55;;;27.00;59.20;;;;;;5067090;28;20251;-58
2023/02/01 07:13:35;;;;;;;11.82;9.07;;;27.00;59.00;;;;;;5067155;28;20035;-59
2023/02/01 07:16:11;;;;;;;9.95;8.85;;;27.00;59.10;;;;;;5066813;28;20088;-59
2023/02/01 07:18:38;;;;;;;9.95;8.93;;;27.00;59.10;;;;;;5067010;28;20025;-60
2023/02/01 07:21:05;;;;;;;10.27;8.98;;;27.00;59.20;;;;;;5066730;28;20362;-59
2023/02/01 07:23:32;;;;;;;10.65;8.88;;;27.00;59.40;;;;;;5066912;28;20040;-59
2023/02/01 07:26:01;;;;;;;13.18;8.95;;;27.00;59.60;;;;;;5066734;28;20048;-58
2023/02/01 07:28:30;;;;;;;11.02;8.10;;;27.00;59.90;;;;;;5066655;28;20025;-59
2023/02/01 07:31:07;;;;;;;9.25;8.02;;;27.00;60.10;;;;;;5066915;28;20025;-60
2023/02/01 07:33:34;;;;;;;9.35;8.35;;;26.90;60.20;;;;;;5066888;28;20265;-57
2023/02/01 07:36:03;;;;;;;9.10;8.20;;;26.90;60.20;;;;;;5066415;28;20096;-57
2023/02/01 07:38:30;;;;;;;10.20;8.93;;;26.90;60.40;;;;;;5066936;28;20029;-58
2023/02/01 07:41:01;;;;;;;11.27;8.02;;;26.90;60.70;;;;;;5066577;28;20028;-60
2023/02/01 07:43:29;;;;;;;8.85;7.95;;;26.90;61.10;;;;;;5066336;28;20120;-62
2023/02/01 07:45:56;;;;;;;8.85;7.95;;;26.90;61.50;;;;;;5066408;28;20074;-63
2023/02/01 07:48:24;;;;;;;10.77;8.10;;;26.90;61.70;;;;;;5066914;28;20025;-62
2023/02/01 07:51:10;;;;;;;8.40;7.60;;;26.90;62.00;;;;;;5066299;28;20029;-63
2023/02/01 07:53:37;;;;;;;11.23;7.78;;;26.90;62.10;;;;;;5066342;28;20035;-62
2023/02/01 07:56:09;;;;;;;8.77;7.75;;;26.90;62.00;;;;;;5066048;28;20339;-61
2023/02/01 07:58:36;;;;;;;9.07;7.78;;;26.80;61.80;;;;;;5066259;28;20047;-60
2023/02/01 08:01:20;;;;;;;8.57;7.60;;;26.80;61.90;;;;;;5066120;28;20282;-59
2023/02/01 08:03:48;;;;;;;9.13;8.23;;;26.80;61.90;;;;;;5066030;28;20037;-58
2023/02/01 08:06:15;;;;;;;10.35;7.63;;;26.80;61.90;;;;;;5065953;28;20036;-57
2023/02/01 08:08:44;;;;;;;8.35;7.18;;;26.80;61.90;;;;;;5065872;28;20032;-59
2023/02/01 08:11:11;;;;;;;11.50;8.32;;;26.80;62.10;;;;;;5065995;28;20029;-58
2023/02/01 08:13:38;;;;;;;8.88;7.97;;;26.80;62.20;;;;;;5067677;28;20021;-58
2023/02/01 08:16:08;;;;;;;8.40;7.10;;;26.80;62.50;;;;;;5085819;28;20070;-58
2023/02/01 08:18:36;;;;;;;10.20;7.85;;;26.70;62.70;;;;;;5085883;28;20098;-58
2023/02/01 08:21:15;;;;;;;9.57;7.50;;;26.70;63.10;;;;;;5085719;28;20205;-58
2023/02/01 08:23:42;;;;;;;7.82;6.68;;;26.70;63.60;;;;;;5085817;28;20103;-59
2023/02/01 08:26:14;;;;;;;9.10;7.22;;;26.70;64.00;;;;;;5085672;28;20057;-60
2023/02/01 08:28:43;;;;;;;9.43;7.32;;;26.70;64.30;;;;;;5085565;28;20032;-59
2023/02/01 08:31:14;;;;;;;8.20;7.40;;;26.70;64.60;;;;;;5085661;28;20021;-57
2023/02/01 08:33:42;;;;;;;8.55;7.47;;;26.60;64.80;;;;;;5085414;28;20351;-59
2023/02/01 08:36:10;;;;;;;8.07;6.95;;;26.70;65.10;;;;;;5085443;28;20024;-56
2023/02/01 08:38:39;;;;;;;7.95;7.05;;;26.60;65.30;;;;;;5085699;28;20262;-58
2023/02/01 08:41:17;;;;;;;8.93;7.38;;;26.60;65.50;;;;;;5085203;28;20264;-58
2023/02/01 08:43:44;;;;;;;8.77;7.60;;;26.60;65.70;;;;;;5085182;28;20037;-59
2023/02/01 08:46:11;;;;;;;7.40;6.70;;;26.60;65.80;;;;;;5085214;28;20065;-57
2023/02/01 08:48:38;;;;;;;8.90;7.55;;;26.60;66.00;;;;;;5085200;28;20224;-59
2023/02/01 08:51:07;;;;;;;8.50;7.70;;;26.60;66.10;;;;;;5085113;28;20255;-59
2023/02/01 08:53:35;;;;;;;8.20;7.38;;;26.60;66.30;;;;;;5085202;28;20024;-60
2023/02/01 08:56:03;;;;;;;8.95;7.63;;;26.60;66.30;;;;;;5084894;28;20100;-59
2023/02/01 08:58:29;;;;;;;8.70;7.50;;;26.60;66.40;;;;;;5085084;28;20032;-59
2023/02/01 09:00:56;;;;;;;8.18;7.38;;;26.60;66.40;;;;;;5085068;28;20052;-60
2023/02/01 09:03:23;;;;;;;9.70;7.78;;;26.60;66.50;;;;;;5085345;28;20055;-58
2023/02/01 09:05:49;;;;;;;8.48;7.57;;;26.50;66.50;;;;;;5085065;28;20028;-57
2023/02/01 09:08:18;;;;;;;8.48;7.10;;;26.50;66.60;;;;;;5085344;28;20031;-58
2023/02/01 09:10:45;;;;;;;10.85;7.47;;;26.50;66.50;;;;;;5084636;28;20025;-56
2023/02/01 09:13:11;;;;;;;11.32;7.50;;;26.50;66.50;;;;;;5085271;28;20029;-56
2023/02/01 09:15:38;;;;;;;9.73;7.20;;;26.50;66.50;;;;;;5084231;28;20331;-57
2023/02/01 09:18:05;;;;;;;9.82;7.47;;;26.50;66.50;;;;;;5085083;28;20035;-57
2023/02/01 09:20:31;;;;;;;8.30;7.40;;;26.40;66.40;;;;;;5084931;28;20028;-58
2023/02/01 09:22:59;;;;;;;7.78;7.07;;;26.40;66.50;;;;;;5085008;28;20069;-59
2023/02/01 09:25:26;;;;;;;10.65;7.28;;;26.40;66.50;;;;;;5084400;28;20024;-61
2023/02/01 09:27:53;;;;;;;12.65;7.95;;;26.40;66.50;;;;;;5084849;28;20029;-58
2023/02/01 09:30:19;;;;;;;11.18;8.02;;;26.40;66.60;;;;;;5084569;28;20016;-63
2023/02/01 09:32:46;;;;;;;15.52;7.35;;;26.40;66.80;;;;;;5084674;28;20021;-58
2023/02/01 09:35:12;;;;;;;8.43;7.15;;;26.30;66.80;;;;;;5084421;28;20042;-57
2023/02/01 09:37:39;;;;;;;8.30;7.40;;;26.30;66.80;;;;;;5084851;28;20039;-61
2023/02/01 09:40:06;;;;;;;8.98;7.40;;;26.30;66.90;;;;;;5084408;28;20020;-58
2023/02/01 09:42:52;;;;;;;8.38;7.32;;;26.30;67.10;;;;;;5084609;28;20032;-56
2023/02/01 09:45:33;;;;;;;10.90;7.40;;;26.30;67.20;;;;;;5084051;28;20316;-60
2023/02/01 09:48:09;;;;;;;11.45;8.07;;;26.30;67.20;;;;;;5084606;28;20209;-60
2023/02/01 09:50:43;;;;;;;8.45;7.60;;;26.30;67.20;;;;;;5078840;28;20021;-57
2023/02/01 09:53:18;;;;;;;9.70;7.57;;;26.30;67.20;;;;;;5077834;28;20033;-60
2023/02/01 09:55:51;;;;;;;8.93;7.43;;;26.30;67.20;;;;;;5084425;28;20026;-61
2023/02/01 09:58:27;;;;;;;10.95;7.97;;;26.20;67.30;;;;;;5084501;28;20107;-59
2023/02/01 10:00:57;;;;;;;10.23;7.60;;;26.20;67.40;;;;;;5083928;28;20209;-59
2023/02/01 10:03:28;;;;;;;8.88;7.97;;;26.20;67.40;;;;;;5083819;28;20328;-57
2023/02/01 10:06:29;;;;;;;8.98;7.75;;;26.20;67.60;;;;;;5083957;28;20066;-59
2023/02/01 10:09:09;;;;;;;8.38;7.40;;;26.20;67.60;;;;;;5080189;28;20048;-60
2023/02/01 10:11:50;;;;;;;11.40;8.32;;;26.20;67.80;;;;;;5083960;28;20035;-58
2023/02/01 10:14:38;;;;;;;15.23;9.48;;;26.10;67.90;;;;;;5083858;28;20340;-55
2023/02/01 10:17:44;;;;;;;10.05;8.30;;;26.10;68.00;;;;;;5083984;28;20025;-60
2023/02/01 10:20:22;;;;;;;10.38;8.43;;;26.10;68.10;;;;;;5083707;28;20032;-61
2023/02/01 10:22:59;;;;;;;11.18;8.65;;;26.10;68.20;;;;;;5084240;28;20293;-58
2023/02/01 10:25:38;;;;;;;13.25;8.43;;;26.00;68.40;;;;;;5083549;28;20042;-58
2023/02/01 10:28:05;;;;;;;14.10;8.90;;;26.00;68.50;;;;;;5086049;28;20260;-59
2023/02/01 10:30:43;;;;;;;17.48;8.90;;;26.10;68.50;;;;;;5087800;28;20020;-61
2023/02/01 10:33:19;;;;;;;14.00;8.98;;;26.00;68.40;;;;;;5088319;28;20021;-57
2023/02/01 10:35:51;;;;;;;15.95;9.68;;;26.00;68.40;;;;;;5087787;28;20036;-60
2023/02/01 10:38:33;;;;;;;13.98;9.77;;;26.00;68.00;;;;;;5088299;28;20031;-57
2023/02/01 10:41:12;;;;;;;16.75;11.10;;;26.00;67.70;;;;;;5087755;28;20029;-60
2023/02/01 10:43:39;;;;;;;18.17;11.73;;;26.00;67.40;;;;;;5087604;28;20086;-57
2023/02/01 10:46:07;;;;;;;20.50;11.90;;;26.00;67.30;;;;;;5086986;28;20032;-59
2023/02/01 10:48:34;;;;;;;17.20;11.27;;;26.00;67.30;;;;;;5087556;28;20027;-58
2023/02/01 10:51:03;;;;;;;18.05;12.20;;;26.00;67.20;;;;;;5087508;28;20017;-57
2023/02/01 10:53:53;;;;;;;19.90;12.35;;;26.00;67.10;;;;;;5087624;28;20348;-58
2023/02/01 10:56:24;;;;;;;17.23;13.38;;;26.00;66.90;;;;;;5087174;28;20529;-56
2023/02/01 10:58:51;;;;;;;23.80;13.35;;;26.00;66.70;;;;;;5067343;28;20033;-60
2023/02/01 11:01:30;;;;;;;20.23;12.68;;;25.90;66.70;;;;;;5067061;28;20040;-62
2023/02/01 11:03:58;;;;;;;16.60;12.50;;;25.90;66.80;;;;;;5067318;28;20439;-59
2023/02/01 11:06:36;;;;;;;16.33;13.07;;;25.90;66.90;;;;;;5067068;28;20031;-57
2023/02/01 11:09:16;;;;;;;21.08;13.32;;;25.90;67.10;;;;;;5067105;28;20053;-60
2023/02/01 11:11:48;;;;;;;27.67;12.68;;;25.90;67.10;;;;;;5070330;28;20069;-59
2023/02/01 11:14:26;;;;;;;24.48;12.98;;;25.90;67.50;;;;;;5077979;28;20088;-56
2023/02/01 11:16:53;;;;;;;25.30;13.05;;;25.90;67.50;;;;;;5080202;28;20250;-58
2023/02/01 11:19:20;;;;;;;19.60;12.48;;;26.00;67.50;;;;;;5082329;28;20051;-62
2023/02/01 11:21:55;;;;;;;21.80;12.60;;;25.90;67.30;;;;;;5087062;28;20044;-60
2023/02/01 11:24:39;;;;;;;23.35;12.95;;;25.90;67.20;;;;;;5082863;28;20028;-60
2023/02/01 11:27:23;;;;;;;26.45;12.68;;;25.90;67.60;;;;;;5077280;28;20127;-61
2023/02/01 11:29:56;;;;;;;26.90;12.85;;;25.90;67.30;;;;;;5075321;28;20033;-53
2023/02/01 11:32:24;;;;;;;38.47;13.57;;;25.90;67.10;;;;;;5076847;28;20153;-58
2023/02/01 11:35:05;;;;;;;29.67;12.63;;;25.90;67.50;;;;;;5087065;28;20028;-60
2023/02/01 11:37:41;;;;;;;34.90;12.88;;;25.90;67.60;;;;;;5087461;28;20051;-60
2023/02/01 11:40:16;;;;;;;34.47;12.55;;;25.90;67.50;;;;;;5086965;28;20021;-60
2023/02/01 11:42:55;;;;;;;26.48;12.40;;;25.90;67.50;;;;;;5085918;28;20048;-60
2023/02/01 11:45:29;;;;;;;39.95;12.20;;;25.90;67.90;;;;;;5085928;28;20285;-61
2023/02/01 11:48:00;;;;;;;39.05;13.18;;;25.90;68.00;;;;;;5087721;28;20016;-62
2023/02/01 11:50:53;;;;;;;50.17;13.13;;;25.90;67.90;;;;;;5087266;28;20031;-60
2023/02/01 11:54:04;;;;;;;29.60;12.82;;;25.90;68.30;;;;;;5085265;28;20091;-60
2023/02/01 11:56:36;;;;;;;27.73;11.75;;;25.90;68.70;;;;;;5066257;28;20048;-60
2023/02/01 11:59:12;;;;;;;35.80;13.75;;;25.90;68.90;;;;;;5087089;28;20084;-62
2023/02/01 12:01:51;;;;;;;44.55;13.52;;;25.90;69.00;;;;;;5087114;28;20032;-59
2023/02/01 12:04:36;;;;;;;37.08;12.63;;;26.00;69.00;;;;;;5086605;28;20017;-59
2023/02/01 12:07:11;;;;;;;45.95;14.02;;;26.00;69.20;;;;;;5087239;28;20107;-60
2023/02/01 12:10:03;;;;;;;39.72;13.73;;;26.00;69.00;;;;;;5086887;28;20024;-63
2023/02/01 12:12:56;;;;;;;45.85;12.52;;;26.10;68.80;;;;;;5086690;28;20135;-65
2023/02/01 12:15:31;;;;;;;29.13;12.05;;;26.10;68.20;;;;;;5086610;28;20020;-60
2023/02/01 12:18:31;;;;;;;37.65;12.80;;;26.10;67.80;;;;;;5087263;28;20267;-58
2023/02/01 12:21:06;;;;;;;44.28;13.82;;;26.20;68.10;;;;;;5086889;28;20021;-62
2023/02/01 12:23:57;;;;;;;52.95;13.25;;;26.20;68.00;;;;;;5086510;28;20045;-61
2023/02/01 12:27:16;;;;;;;44.42;12.43;;;26.20;67.80;;;;;;5086233;28;20036;-61
2023/02/01 12:30:08;;;;;;;36.53;11.90;;;26.30;67.90;;;;;;5069369;28;20103;-60
2023/02/01 12:32:34;;;;;;;38.45;11.48;;;26.30;68.00;;;;;;5086621;28;20031;-60
2023/02/01 12:35:27;;;;;;;29.50;10.90;;;26.30;68.40;;;;;;5086329;28;20087;-59
2023/02/01 12:38:17;;;;;;;30.77;11.10;;;26.40;67.80;;;;;;5086695;28;20027;-59
2023/02/01 12:40:49;;;;;;;30.00;10.75;;;26.40;67.80;;;;;;5086498;28;20070;-61
2023/02/01 12:43:41;;;;;;;28.75;10.32;;;26.50;67.90;;;;;;5086070;28;20059;-60
2023/02/01 12:46:20;;;;;;;31.10;10.23;;;26.50;67.90;;;;;;5085604;28;20145;-59
2023/02/01 12:49:25;;;;;;;28.73;10.13;;;26.60;67.90;;;;;;5086331;28;20078;-60
2023/02/01 12:51:59;;;;;;;26.75;9.77;;;26.60;67.60;;;;;;5076640;28;20039;-62
2023/02/01 12:54:58;;;;;;;17.88;9.45;;;26.60;68.00;;;;;;5085998;28;20191;-62
2023/02/01 12:57:31;;;;;;;19.65;10.23;;;26.60;68.20;;;;;;5086372;28;20037;-60
2023/02/01 13:00:21;;;;;;;19.45;9.82;;;26.70;67.80;;;;;;5085658;28;20016;-55
2023/02/01 13:03:00;;;;;;;16.40;8.80;;;26.70;67.90;;;;;;5086118;28;20033;-59
2023/02/01 13:05:59;;;;;;;17.15;9.38;;;26.70;67.60;;;;;;5085487;28;20032;-64
2023/02/01 13:08:39;;;;;;;16.08;9.48;;;26.80;67.90;;;;;;5033228;28;20055;-59
2023/02/01 13:11:15;;;;;;;16.23;8.82;;;26.80;67.80;;;;;;5085757;28;20012;-60
2023/02/01 13:14:05;;;;;;;14.05;8.60;;;26.90;67.40;;;;;;5085276;28;20220;-60
2023/02/01 13:16:44;;;;;;;11.60;8.70;;;26.90;67.60;;;;;;5085515;28;20101;-66
2023/02/01 13:19:29;;;;;;;15.20;8.80;;;26.90;67.90;;;;;;5085220;28;20032;-57
2023/02/01 13:22:13;;;;;;;14.75;9.38;;;26.90;67.50;;;;;;5085430;28;20292;-64
2023/02/01 13:24:43;;;;;;;13.38;9.68;;;26.90;68.00;;;;;;5084580;28;20067;-61
2023/02/01 13:27:17;;;;;;;14.45;8.35;;;26.90;67.90;;;;;;5085230;28;20040;-62